Terminal Aerodrome Forecast
Issued by NWS Goodland, KS

Home | Current Version | Previous Version | Text Only | Print | Product List | Glossary On
Versions: 1 2 3 4 5 6 7 8 9 10 11 12 13 14 15 16 17 18 19 20 21 22 23 24 25
000
FTUS43 KGLD 270532 AAA
TAFGLD
TAF AMD
KGLD 270532Z 2706/2806 07009KT P6SM BKN020
      TEMPO 2706/2708 5SM BR BKN006
     FM271400 04012KT P6SM BKN030
     FM271600 04014G19KT P6SM SCT035 BKN180
     FM272300 06011KT P6SM FEW050 SCT180
     FM280300 VRB04KT P6SM SCT200=

USA.gov is the U.S. government's official web portal to all federal, state and local government web resources and services.